sensor_id;sensor_type;location;lat;lon;timestamp;temperature;humidity
15630;DHT22;7914;50.842;0.166;2023-03-01T00:01:59;0.90;1.00
15630;DHT22;7914;50.842;0.166;2023-03-01T00:04:24;1.10;1.00
15630;DHT22;7914;50.842;0.166;2023-03-01T00:06:50;1.10;1.00
15630;DHT22;7914;50.842;0.166;2023-03-01T00:09:16;0.80;11.10
15630;DHT22;7914;50.842;0.166;2023-03-01T00:11:42;1.00;1.00
15630;DHT22;7914;50.842;0.166;2023-03-01T00:14:08;1.00;99.90
15630;DHT22;7914;50.842;0.166;2023-03-01T00:16:36;1.60;99.90
15630;DHT22;7914;50.842;0.166;2023-03-01T00:19:04;0.90;99.90
15630;DHT22;7914;50.842;0.166;2023-03-01T00:21:29;0.90;21.60
15630;DHT22;7914;50.842;0.166;2023-03-01T00:23:56;0.90;99.90
15630;DHT22;7914;50.842;0.166;2023-03-01T00:26:23;0.80;1.00
15630;DHT22;7914;50.842;0.166;2023-03-01T00:28:49;0.70;99.90
15630;DHT22;7914;50.842;0.166;2023-03-01T00:31:19;2.00;99.90
15630;DHT22;7914;50.842;0.166;2023-03-01T00:33:45;1.50;99.90
15630;DHT22;7914;50.842;0.166;2023-03-01T00:36:13;0.80;99.90
15630;DHT22;7914;50.842;0.166;2023-03-01T00:38:42;0.90;82.70
15630;DHT22;7914;50.842;0.166;2023-03-01T00:41:10;1.00;20.00
15630;DHT22;7914;50.842;0.166;2023-03-01T00:43:36;0.90;1.00
15630;DHT22;7914;50.842;0.166;2023-03-01T00:46:09;0.90;1.00
15630;DHT22;7914;50.842;0.166;2023-03-01T00:48:35;0.80;1.00
15630;DHT22;7914;50.842;0.166;2023-03-01T00:51:16;2.60;1.00
15630;DHT22;7914;50.842;0.166;2023-03-01T00:53:42;0.80;1.00
15630;DHT22;7914;50.842;0.166;2023-03-01T00:56:10;0.80;1.00
15630;DHT22;7914;50.842;0.166;2023-03-01T00:58:36;2.00;1.00
15630;DHT22;7914;50.842;0.166;2023-03-01T01:01:20;2.70;1.00
15630;DHT22;7914;50.842;0.166;2023-03-01T01:03:51;0.90;1.00
15630;DHT22;7914;50.842;0.166;2023-03-01T01:06:20;0.80;1.00
15630;DHT22;7914;50.842;0.166;2023-03-01T01:08:46;0.90;1.00
15630;DHT22;7914;50.842;0.166;2023-03-01T01:11:13;0.90;1.00
15630;DHT22;7914;50.842;0.166;2023-03-01T01:13:40;0.90;1.00
15630;DHT22;7914;50.842;0.166;2023-03-01T01:16:14;3.20;1.00
15630;DHT22;7914;50.842;0.166;2023-03-01T01:18:40;0.90;1.00
15630;DHT22;7914;50.842;0.166;2023-03-01T01:21:08;0.90;1.00
15630;DHT22;7914;50.842;0.166;2023-03-01T01:23:35;0.90;99.90
15630;DHT22;7914;50.842;0.166;2023-03-01T01:26:08;0.80;99.90
15630;DHT22;7914;50.842;0.166;2023-03-01T01:28:35;0.70;1.00
15630;DHT22;7914;50.842;0.166;2023-03-01T01:31:01;0.80;1.00
15630;DHT22;7914;50.842;0.166;2023-03-01T01:33:27;2.10;1.00
15630;DHT22;7914;50.842;0.166;2023-03-01T01:35:53;0.70;1.00
15630;DHT22;7914;50.842;0.166;2023-03-01T01:38:19;0.70;1.00
15630;DHT22;7914;50.842;0.166;2023-03-01T01:40:47;1.80;1.00
15630;DHT22;7914;50.842;0.166;2023-03-01T01:43:32;0.80;1.00
15630;DHT22;7914;50.842;0.166;2023-03-01T01:46:04;0.80;1.00
15630;DHT22;7914;50.842;0.166;2023-03-01T01:48:52;0.90;99.90
15630;DHT22;7914;50.842;0.166;2023-03-01T01:51:25;0.80;99.90
15630;DHT22;7914;50.842;0.166;2023-03-01T01:53:56;0.90;99.90
15630;DHT22;7914;50.842;0.166;2023-03-01T01:56:26;0.80;99.90
15630;DHT22;7914;50.842;0.166;2023-03-01T01:58:53;0.80;97.70
15630;DHT22;7914;50.842;0.166;2023-03-01T02:01:19;3.00;99.90
15630;DHT22;7914;50.842;0.166;2023-03-01T02:03:46;3.10;99.90
15630;DHT22;7914;50.842;0.166;2023-03-01T02:06:23;0.80;99.90
15630;DHT22;7914;50.842;0.166;2023-03-01T02:08:57;0.80;99.90
15630;DHT22;7914;50.842;0.166;2023-03-01T02:11:25;0.80;99.90
15630;DHT22;7914;50.842;0.166;2023-03-01T02:13:53;0.70;99.90
15630;DHT22;7914;50.842;0.166;2023-03-01T02:16:20;2.40;99.90
15630;DHT22;7914;50.842;0.166;2023-03-01T02:18:46;2.70;99.90
15630;DHT22;7914;50.842;0.166;2023-03-01T02:24:21;0.80;99.90
15630;DHT22;7914;50.842;0.166;2023-03-01T02:26:54;0.80;1.00
15630;DHT22;7914;50.842;0.166;2023-03-01T02:29:22;0.80;1.00
15630;DHT22;7914;50.842;0.166;2023-03-01T02:31:48;0.70;1.00
15630;DHT22;7914;50.842;0.166;2023-03-01T02:34:20;0.60;99.90
15630;DHT22;7914;50.842;0.166;2023-03-01T02:37:02;0.50;1.00
15630;DHT22;7914;50.842;0.166;2023-03-01T02:39:48;0.40;1.00
15630;DHT22;7914;50.842;0.166;2023-03-01T02:42:19;1.30;99.90
15630;DHT22;7914;50.842;0.166;2023-03-01T02:44:45;0.30;99.90
15630;DHT22;7914;50.842;0.166;2023-03-01T02:47:11;0.30;99.90
15630;DHT22;7914;50.842;0.166;2023-03-01T02:49:37;0.20;99.90
15630;DHT22;7914;50.842;0.166;2023-03-01T02:54:55;0.20;99.90
15630;DHT22;7914;50.842;0.166;2023-03-01T02:57:25;0.20;99.90
15630;DHT22;7914;50.842;0.166;2023-03-01T02:59:54;0.30;99.90
15630;DHT22;7914;50.842;0.166;2023-03-01T03:02:26;0.10;9.60
15630;DHT22;7914;50.842;0.166;2023-03-01T03:07:34;0.10;38.10
15630;DHT22;7914;50.842;0.166;2023-03-01T03:10:02;0.10;99.90
15630;DHT22;7914;50.842;0.166;2023-03-01T03:12:28;0.00;99.90
15630;DHT22;7914;50.842;0.166;2023-03-01T03:14:54;0.00;99.90
15630;DHT22;7914;50.842;0.166;2023-03-01T03:17:19;-0.10;1.00
15630;DHT22;7914;50.842;0.166;2023-03-01T03:22:12;-0.10;1.00
15630;DHT22;7914;50.842;0.166;2023-03-01T03:24:38;-0.20;1.00
15630;DHT22;7914;50.842;0.166;2023-03-01T03:27:04;-0.20;1.00
15630;DHT22;7914;50.842;0.166;2023-03-01T03:29:30;-0.20;1.00
15630;DHT22;7914;50.842;0.166;2023-03-01T03:31:56;-0.30;1.00
15630;DHT22;7914;50.842;0.166;2023-03-01T03:34:22;-0.30;1.00
15630;DHT22;7914;50.842;0.166;2023-03-01T03:36:53;-0.30;1.00
15630;DHT22;7914;50.842;0.166;2023-03-01T03:39:23;-0.30;1.00
15630;DHT22;7914;50.842;0.166;2023-03-01T03:41:49;-0.40;1.00
15630;DHT22;7914;50.842;0.166;2023-03-01T03:44:14;-0.40;9.40
15630;DHT22;7914;50.842;0.166;2023-03-01T03:46:40;-0.40;48.00
15630;DHT22;7914;50.842;0.166;2023-03-01T03:49:05;-0.40;77.30
15630;DHT22;7914;50.842;0.166;2023-03-01T03:51:31;-0.40;56.80
15630;DHT22;7914;50.842;0.166;2023-03-01T03:53:57;-0.40;94.50
15630;DHT22;7914;50.842;0.166;2023-03-01T03:56:22;-0.40;99.90
15630;DHT22;7914;50.842;0.166;2023-03-01T03:58:51;-0.40;99.90
15630;DHT22;7914;50.842;0.166;2023-03-01T04:01:17;-0.50;99.90
15630;DHT22;7914;50.842;0.166;2023-03-01T04:03:43;-0.50;99.90
15630;DHT22;7914;50.842;0.166;2023-03-01T04:06:13;-0.50;99.90
15630;DHT22;7914;50.842;0.166;2023-03-01T04:08:39;-0.40;99.90
15630;DHT22;7914;50.842;0.166;2023-03-01T04:11:06;0.30;99.90
15630;DHT22;7914;50.842;0.166;2023-03-01T04:13:52;-0.50;99.90
15630;DHT22;7914;50.842;0.166;2023-03-01T04:16:19;-0.50;99.90
15630;DHT22;7914;50.842;0.166;2023-03-01T04:18:45;0.20;99.90
15630;DHT22;7914;50.842;0.166;2023-03-01T04:21:11;-0.50;99.90
15630;DHT22;7914;50.842;0.166;2023-03-01T04:23:38;-0.40;99.90
15630;DHT22;7914;50.842;0.166;2023-03-01T04:26:04;-0.40;99.90
15630;DHT22;7914;50.842;0.166;2023-03-01T04:31:07;-0.40;99.90
15630;DHT22;7914;50.842;0.166;2023-03-01T04:33:50;-0.20;99.90
15630;DHT22;7914;50.842;0.166;2023-03-01T04:36:17;-0.20;99.90
15630;DHT22;7914;50.842;0.166;2023-03-01T04:38:43;-0.20;99.90
15630;DHT22;7914;50.842;0.166;2023-03-01T04:41:13;0.80;99.90
15630;DHT22;7914;50.842;0.166;2023-03-01T04:43:39;-0.10;99.90
15630;DHT22;7914;50.842;0.166;2023-03-01T04:46:08;-0.20;99.90
15630;DHT22;7914;50.842;0.166;2023-03-01T04:48:39;-0.30;99.90
15630;DHT22;7914;50.842;0.166;2023-03-01T04:51:05;-0.40;99.90
15630;DHT22;7914;50.842;0.166;2023-03-01T04:53:32;-0.40;99.90
15630;DHT22;7914;50.842;0.166;2023-03-01T04:55:58;-0.40;99.90
15630;DHT22;7914;50.842;0.166;2023-03-01T04:58:26;-0.40;99.90
15630;DHT22;7914;50.842;0.166;2023-03-01T05:00:52;-0.50;99.90
15630;DHT22;7914;50.842;0.166;2023-03-01T05:03:18;-0.50;99.90
15630;DHT22;7914;50.842;0.166;2023-03-01T05:05:46;-0.60;99.90
15630;DHT22;7914;50.842;0.166;2023-03-01T05:08:12;-0.60;99.90
15630;DHT22;7914;50.842;0.166;2023-03-01T05:10:44;-0.70;99.90
15630;DHT22;7914;50.842;0.166;2023-03-01T05:13:11;-0.60;99.90
15630;DHT22;7914;50.842;0.166;2023-03-01T05:15:39;-0.70;99.90
15630;DHT22;7914;50.842;0.166;2023-03-01T05:18:05;-0.60;99.90
15630;DHT22;7914;50.842;0.166;2023-03-01T05:20:37;-0.60;99.90
15630;DHT22;7914;50.842;0.166;2023-03-01T05:23:03;-0.60;99.90
15630;DHT22;7914;50.842;0.166;2023-03-01T05:25:31;-0.60;99.90
15630;DHT22;7914;50.842;0.166;2023-03-01T05:28:02;-0.60;1.00
15630;DHT22;7914;50.842;0.166;2023-03-01T05:30:33;-0.50;1.00
15630;DHT22;7914;50.842;0.166;2023-03-01T05:33:00;-0.40;1.00
15630;DHT22;7914;50.842;0.166;2023-03-01T05:35:26;-0.30;1.00
15630;DHT22;7914;50.842;0.166;2023-03-01T05:37:52;-0.40;1.00
15630;DHT22;7914;50.842;0.166;2023-03-01T05:40:20;-0.50;1.00
15630;DHT22;7914;50.842;0.166;2023-03-01T05:42:48;-0.50;1.00
15630;DHT22;7914;50.842;0.166;2023-03-01T05:45:15;-0.40;1.00
15630;DHT22;7914;50.842;0.166;2023-03-01T05:47:42;-0.50;1.00
15630;DHT22;7914;50.842;0.166;2023-03-01T05:50:12;-0.50;1.00
15630;DHT22;7914;50.842;0.166;2023-03-01T05:52:38;0.60;1.00
15630;DHT22;7914;50.842;0.166;2023-03-01T05:55:04;-0.50;1.00
15630;DHT22;7914;50.842;0.166;2023-03-01T05:57:30;-0.60;1.00
15630;DHT22;7914;50.842;0.166;2023-03-01T05:59:55;-0.50;1.00
15630;DHT22;7914;50.842;0.166;2023-03-01T06:02:21;-0.40;1.00
15630;DHT22;7914;50.842;0.166;2023-03-01T06:04:47;-0.30;1.00
15630;DHT22;7914;50.842;0.166;2023-03-01T06:07:12;-0.30;1.00
15630;DHT22;7914;50.842;0.166;2023-03-01T06:09:38;-0.40;1.00
15630;DHT22;7914;50.842;0.166;2023-03-01T06:12:04;-0.30;1.00
15630;DHT22;7914;50.842;0.166;2023-03-01T06:14:30;-0.30;1.00
15630;DHT22;7914;50.842;0.166;2023-03-01T06:16:56;-0.30;1.00
15630;DHT22;7914;50.842;0.166;2023-03-01T06:19:21;-0.40;1.00
15630;DHT22;7914;50.842;0.166;2023-03-01T06:21:47;-0.40;1.00
15630;DHT22;7914;50.842;0.166;2023-03-01T06:24:13;1.60;1.00
15630;DHT22;7914;50.842;0.166;2023-03-01T06:26:38;-0.40;1.00
15630;DHT22;7914;50.842;0.166;2023-03-01T06:31:30;-0.40;1.00
15630;DHT22;7914;50.842;0.166;2023-03-01T06:33:56;-0.20;1.00
15630;DHT22;7914;50.842;0.166;2023-03-01T06:38:47;-0.40;1.00
15630;DHT22;7914;50.842;0.166;2023-03-01T06:41:13;-0.40;1.00
15630;DHT22;7914;50.842;0.166;2023-03-01T06:43:38;-0.40;1.00
15630;DHT22;7914;50.842;0.166;2023-03-01T06:46:05;-0.40;1.00
15630;DHT22;7914;50.842;0.166;2023-03-01T06:48:32;-0.30;1.00
15630;DHT22;7914;50.842;0.166;2023-03-01T06:51:00;-0.30;1.00
15630;DHT22;7914;50.842;0.166;2023-03-01T06:53:29;-0.30;1.00
15630;DHT22;7914;50.842;0.166;2023-03-01T06:55:58;-0.30;1.00
15630;DHT22;7914;50.842;0.166;2023-03-01T06:58:25;-0.30;1.00
15630;DHT22;7914;50.842;0.166;2023-03-01T07:00:51;-0.30;1.00
15630;DHT22;7914;50.842;0.166;2023-03-01T07:05:43;-0.30;1.00
15630;DHT22;7914;50.842;0.166;2023-03-01T07:08:10;-0.20;1.00
15630;DHT22;7914;50.842;0.166;2023-03-01T07:10:35;-0.20;1.00
15630;DHT22;7914;50.842;0.166;2023-03-01T07:13:01;0.00;1.00
15630;DHT22;7914;50.842;0.166;2023-03-01T07:15:28;0.00;1.00
15630;DHT22;7914;50.842;0.166;2023-03-01T07:17:54;0.10;1.00
15630;DHT22;7914;50.842;0.166;2023-03-01T07:20:20;0.10;1.00
15630;DHT22;7914;50.842;0.166;2023-03-01T07:22:50;0.20;1.00
15630;DHT22;7914;50.842;0.166;2023-03-01T07:25:16;0.60;1.00
15630;DHT22;7914;50.842;0.166;2023-03-01T07:27:42;0.50;1.00
15630;DHT22;7914;50.842;0.166;2023-03-01T07:30:08;0.60;1.00
15630;DHT22;7914;50.842;0.166;2023-03-01T07:32:34;0.60;1.00
15630;DHT22;7914;50.842;0.166;2023-03-01T07:34:59;2.70;1.00
15630;DHT22;7914;50.842;0.166;2023-03-01T07:37:25;3.00;1.00
15630;DHT22;7914;50.842;0.166;2023-03-01T07:39:50;0.90;1.00
15630;DHT22;7914;50.842;0.166;2023-03-01T07:42:16;3.50;1.00
15630;DHT22;7914;50.842;0.166;2023-03-01T07:44:42;1.20;1.00
15630;DHT22;7914;50.842;0.166;2023-03-01T07:47:07;1.90;1.00
15630;DHT22;7914;50.842;0.166;2023-03-01T07:49:33;1.30;1.00
15630;DHT22;7914;50.842;0.166;2023-03-01T07:51:59;1.30;1.00
15630;DHT22;7914;50.842;0.166;2023-03-01T07:54:25;2.00;1.00
15630;DHT22;7914;50.842;0.166;2023-03-01T07:56:51;1.50;1.00
15630;DHT22;7914;50.842;0.166;2023-03-01T07:59:17;1.60;1.00
15630;DHT22;7914;50.842;0.166;2023-03-01T08:01:43;4.00;1.00
15630;DHT22;7914;50.842;0.166;2023-03-01T08:04:08;1.90;1.00
15630;DHT22;7914;50.842;0.166;2023-03-01T08:06:35;2.00;1.00
15630;DHT22;7914;50.842;0.166;2023-03-01T08:09:01;2.00;1.00
15630;DHT22;7914;50.842;0.166;2023-03-01T08:11:27;2.20;1.00
15630;DHT22;7914;50.842;0.166;2023-03-01T08:13:55;2.30;1.00
15630;DHT22;7914;50.842;0.166;2023-03-01T08:16:22;3.20;1.00
15630;DHT22;7914;50.842;0.166;2023-03-01T08:18:48;2.40;1.00
15630;DHT22;7914;50.842;0.166;2023-03-01T08:21:16;3.90;1.00
15630;DHT22;7914;50.842;0.166;2023-03-01T08:23:42;2.70;1.00
15630;DHT22;7914;50.842;0.166;2023-03-01T08:26:14;2.50;1.00
15630;DHT22;7914;50.842;0.166;2023-03-01T08:28:41;2.60;1.00
15630;DHT22;7914;50.842;0.166;2023-03-01T08:31:22;2.70;1.00
15630;DHT22;7914;50.842;0.166;2023-03-01T08:33:51;2.70;1.00
15630;DHT22;7914;50.842;0.166;2023-03-01T08:36:24;4.00;99.90
15630;DHT22;7914;50.842;0.166;2023-03-01T08:38:51;3.80;99.90
15630;DHT22;7914;50.842;0.166;2023-03-01T08:41:17;2.90;99.90
15630;DHT22;7914;50.842;0.166;2023-03-01T08:43:43;2.90;99.90
15630;DHT22;7914;50.842;0.166;2023-03-01T08:46:09;3.00;99.90
15630;DHT22;7914;50.842;0.166;2023-03-01T08:48:35;3.20;99.90
15630;DHT22;7914;50.842;0.166;2023-03-01T08:51:13;3.20;99.90
15630;DHT22;7914;50.842;0.166;2023-03-01T08:53:39;3.20;99.90
15630;DHT22;7914;50.842;0.166;2023-03-01T08:56:05;3.20;99.90
15630;DHT22;7914;50.842;0.166;2023-03-01T08:58:31;3.40;99.90
15630;DHT22;7914;50.842;0.166;2023-03-01T09:00:57;3.40;99.90
15630;DHT22;7914;50.842;0.166;2023-03-01T09:03:24;3.50;99.90
15630;DHT22;7914;50.842;0.166;2023-03-01T09:05:51;3.90;47.20
15630;DHT22;7914;50.842;0.166;2023-03-01T09:08:18;3.60;1.00
15630;DHT22;7914;50.842;0.166;2023-03-01T09:10:43;3.70;1.00
15630;DHT22;7914;50.842;0.166;2023-03-01T09:13:09;3.90;1.00
15630;DHT22;7914;50.842;0.166;2023-03-01T09:15:37;4.00;1.00
15630;DHT22;7914;50.842;0.166;2023-03-01T09:18:02;4.70;1.00
15630;DHT22;7914;50.842;0.166;2023-03-01T09:20:28;4.20;1.00
15630;DHT22;7914;50.842;0.166;2023-03-01T09:22:56;4.40;99.90
15630;DHT22;7914;50.842;0.166;2023-03-01T09:25:22;4.60;99.90
15630;DHT22;7914;50.842;0.166;2023-03-01T09:27:51;4.80;99.90
15630;DHT22;7914;50.842;0.166;2023-03-01T09:30:17;6.00;1.00
15630;DHT22;7914;50.842;0.166;2023-03-01T09:32:42;5.00;99.90
15630;DHT22;7914;50.842;0.166;2023-03-01T09:35:11;5.10;1.00
15630;DHT22;7914;50.842;0.166;2023-03-01T09:37:37;5.00;1.00
15630;DHT22;7914;50.842;0.166;2023-03-01T09:40:05;6.60;1.00
15630;DHT22;7914;50.842;0.166;2023-03-01T09:42:34;4.70;86.70
15630;DHT22;7914;50.842;0.166;2023-03-01T09:45:35;4.90;1.00
15630;DHT22;7914;50.842;0.166;2023-03-01T09:48:02;4.50;1.00
15630;DHT22;7914;50.842;0.166;2023-03-01T09:50:35;4.40;99.90
15630;DHT22;7914;50.842;0.166;2023-03-01T09:53:16;5.70;1.00
15630;DHT22;7914;50.842;0.166;2023-03-01T09:55:51;4.80;1.00
15630;DHT22;7914;50.842;0.166;2023-03-01T09:58:45;5.10;99.90
15630;DHT22;7914;50.842;0.166;2023-03-01T10:04:24;5.40;99.90
15630;DHT22;7914;50.842;0.166;2023-03-01T10:09:49;5.90;1.00
15630;DHT22;7914;50.842;0.166;2023-03-01T10:12:22;6.20;99.90
15630;DHT22;7914;50.842;0.166;2023-03-01T10:15:07;7.50;99.90
15630;DHT22;7914;50.842;0.166;2023-03-01T10:17:52;6.60;99.90
15630;DHT22;7914;50.842;0.166;2023-03-01T10:20:26;6.50;1.00
15630;DHT22;7914;50.842;0.166;2023-03-01T10:22:52;8.10;1.00
15630;DHT22;7914;50.842;0.166;2023-03-01T10:28:26;6.80;1.00
15630;DHT22;7914;50.842;0.166;2023-03-01T10:30:57;6.50;1.00
15630;DHT22;7914;50.842;0.166;2023-03-01T10:33:27;7.30;99.90
15630;DHT22;7914;50.842;0.166;2023-03-01T10:35:54;8.00;1.00
15630;DHT22;7914;50.842;0.166;2023-03-01T10:38:20;7.90;1.00
15630;DHT22;7914;50.842;0.166;2023-03-01T10:41:06;6.90;99.90
15630;DHT22;7914;50.842;0.166;2023-03-01T10:43:48;7.60;99.90
15630;DHT22;7914;50.842;0.166;2023-03-01T10:46:35;6.80;1.00
15630;DHT22;7914;50.842;0.166;2023-03-01T10:49:14;7.10;99.90
15630;DHT22;7914;50.842;0.166;2023-03-01T10:51:42;7.90;1.00
15630;DHT22;7914;50.842;0.166;2023-03-01T10:56:56;7.80;99.90
15630;DHT22;7914;50.842;0.166;2023-03-01T10:59:35;7.80;9.80
15630;DHT22;7914;50.842;0.166;2023-03-01T11:02:39;7.40;99.90
15630;DHT22;7914;50.842;0.166;2023-03-01T11:10:21;7.40;99.90
15630;DHT22;7914;50.842;0.166;2023-03-01T11:12:47;6.90;99.90
15630;DHT22;7914;50.842;0.166;2023-03-01T11:15:27;6.90;99.90
15630;DHT22;7914;50.842;0.166;2023-03-01T11:17:55;8.00;1.00
15630;DHT22;7914;50.842;0.166;2023-03-01T11:20:48;7.10;99.90
15630;DHT22;7914;50.842;0.166;2023-03-01T11:23:14;7.10;1.00
15630;DHT22;7914;50.842;0.166;2023-03-01T11:25:47;7.80;99.90
15630;DHT22;7914;50.842;0.166;2023-03-01T11:28:17;7.50;99.90
15630;DHT22;7914;50.842;0.166;2023-03-01T11:30:59;8.40;1.00
15630;DHT22;7914;50.842;0.166;2023-03-01T11:33:34;6.90;1.00
15630;DHT22;7914;50.842;0.166;2023-03-01T11:38:53;6.90;99.90
15630;DHT22;7914;50.842;0.166;2023-03-01T11:41:26;7.10;1.00
15630;DHT22;7914;50.842;0.166;2023-03-01T11:44:25;7.20;99.90
15630;DHT22;7914;50.842;0.166;2023-03-01T11:49:57;7.00;99.90
15630;DHT22;7914;50.842;0.166;2023-03-01T11:52:43;8.60;1.00
15630;DHT22;7914;50.842;0.166;2023-03-01T12:07:00;7.30;1.00
15630;DHT22;7914;50.842;0.166;2023-03-01T12:12:17;6.90;99.90
15630;DHT22;7914;50.842;0.166;2023-03-01T12:25:51;6.40;1.00
15630;DHT22;7914;50.842;0.166;2023-03-01T12:28:31;6.10;17.30
15630;DHT22;7914;50.842;0.166;2023-03-01T12:36:30;5.80;99.90
15630;DHT22;7914;50.842;0.166;2023-03-01T12:42:00;6.00;1.00
15630;DHT22;7914;50.842;0.166;2023-03-01T12:44:57;6.10;99.90
15630;DHT22;7914;50.842;0.166;2023-03-01T12:50:37;6.50;1.00
15630;DHT22;7914;50.842;0.166;2023-03-01T12:53:04;6.70;1.00
15630;DHT22;7914;50.842;0.166;2023-03-01T12:55:38;7.00;99.90
15630;DHT22;7914;50.842;0.166;2023-03-01T13:00:45;7.50;99.90
15630;DHT22;7914;50.842;0.166;2023-03-01T13:03:42;7.20;1.00
15630;DHT22;7914;50.842;0.166;2023-03-01T13:09:00;7.20;99.90
15630;DHT22;7914;50.842;0.166;2023-03-01T13:11:28;7.10;99.90
15630;DHT22;7914;50.842;0.166;2023-03-01T13:14:34;7.10;1.00
15630;DHT22;7914;50.842;0.166;2023-03-01T13:17:00;7.20;1.00
15630;DHT22;7914;50.842;0.166;2023-03-01T13:19:27;7.20;99.90
15630;DHT22;7914;50.842;0.166;2023-03-01T13:21:55;7.20;99.90
15630;DHT22;7914;50.842;0.166;2023-03-01T13:24:29;7.40;99.90
15630;DHT22;7914;50.842;0.166;2023-03-01T13:27:22;8.00;99.90
15630;DHT22;7914;50.842;0.166;2023-03-01T13:29:55;7.10;99.90
15630;DHT22;7914;50.842;0.166;2023-03-01T13:32:34;7.20;99.90
15630;DHT22;7914;50.842;0.166;2023-03-01T13:37:43;7.00;99.90
15630;DHT22;7914;50.842;0.166;2023-03-01T13:42:43;8.60;1.00
15630;DHT22;7914;50.842;0.166;2023-03-01T13:45:38;7.00;1.00
15630;DHT22;7914;50.842;0.166;2023-03-01T13:48:28;7.10;99.90
15630;DHT22;7914;50.842;0.166;2023-03-01T13:51:12;7.00;99.90
15630;DHT22;7914;50.842;0.166;2023-03-01T13:53:46;7.10;41.70
15630;DHT22;7914;50.842;0.166;2023-03-01T13:56:36;6.90;15.20
15630;DHT22;7914;50.842;0.166;2023-03-01T13:59:06;7.00;1.00
15630;DHT22;7914;50.842;0.166;2023-03-01T14:01:38;7.30;99.90
15630;DHT22;7914;50.842;0.166;2023-03-01T14:06:48;7.20;99.90
15630;DHT22;7914;50.842;0.166;2023-03-01T14:14:32;7.20;99.90
15630;DHT22;7914;50.842;0.166;2023-03-01T14:19:40;7.20;1.00
15630;DHT22;7914;50.842;0.166;2023-03-01T14:22:30;7.20;1.00
15630;DHT22;7914;50.842;0.166;2023-03-01T14:25:25;7.20;1.00
15630;DHT22;7914;50.842;0.166;2023-03-01T14:30:41;7.10;1.00
15630;DHT22;7914;50.842;0.166;2023-03-01T14:33:27;7.10;1.00
15630;DHT22;7914;50.842;0.166;2023-03-01T14:36:06;7.00;1.00
15630;DHT22;7914;50.842;0.166;2023-03-01T14:38:43;7.00;1.00
15630;DHT22;7914;50.842;0.166;2023-03-01T14:41:18;6.90;1.00
15630;DHT22;7914;50.842;0.166;2023-03-01T14:43:55;6.90;1.00
15630;DHT22;7914;50.842;0.166;2023-03-01T14:46:28;7.00;10.10
15630;DHT22;7914;50.842;0.166;2023-03-01T14:49:23;7.40;93.40
15630;DHT22;7914;50.842;0.166;2023-03-01T14:56:58;7.80;1.00
15630;DHT22;7914;50.842;0.166;2023-03-01T14:59:25;7.00;1.00
15630;DHT22;7914;50.842;0.166;2023-03-01T15:01:53;8.10;1.00
15630;DHT22;7914;50.842;0.166;2023-03-01T15:04:19;7.00;1.00
15630;DHT22;7914;50.842;0.166;2023-03-01T15:06:49;8.20;1.00
15630;DHT22;7914;50.842;0.166;2023-03-01T15:09:16;7.00;14.30
15630;DHT22;7914;50.842;0.166;2023-03-01T15:11:43;7.10;36.30
15630;DHT22;7914;50.842;0.166;2023-03-01T15:14:29;7.70;99.90
15630;DHT22;7914;50.842;0.166;2023-03-01T15:17:03;7.10;99.90
15630;DHT22;7914;50.842;0.166;2023-03-01T15:19:29;7.60;99.90
15630;DHT22;7914;50.842;0.166;2023-03-01T15:21:55;7.00;99.90
15630;DHT22;7914;50.842;0.166;2023-03-01T15:24:24;8.10;99.90
15630;DHT22;7914;50.842;0.166;2023-03-01T15:26:51;7.40;99.90
15630;DHT22;7914;50.842;0.166;2023-03-01T15:29:30;8.50;99.90
15630;DHT22;7914;50.842;0.166;2023-03-01T15:31:59;7.20;1.00
15630;DHT22;7914;50.842;0.166;2023-03-01T15:34:31;7.80;1.00
15630;DHT22;7914;50.842;0.166;2023-03-01T15:36:59;8.40;99.90
15630;DHT22;7914;50.842;0.166;2023-03-01T15:39:32;7.40;99.90
15630;DHT22;7914;50.842;0.166;2023-03-01T15:42:09;6.80;1.00
15630;DHT22;7914;50.842;0.166;2023-03-01T15:44:39;6.80;1.00
15630;DHT22;7914;50.842;0.166;2023-03-01T15:47:25;6.90;1.00
15630;DHT22;7914;50.842;0.166;2023-03-01T15:49:53;9.00;99.90
15630;DHT22;7914;50.842;0.166;2023-03-01T15:52:26;6.80;1.00
15630;DHT22;7914;50.842;0.166;2023-03-01T15:54:59;6.80;1.00
15630;DHT22;7914;50.842;0.166;2023-03-01T15:57:26;6.70;1.00
15630;DHT22;7914;50.842;0.166;2023-03-01T15:59:51;7.00;99.90
15630;DHT22;7914;50.842;0.166;2023-03-01T16:02:17;6.70;1.00
15630;DHT22;7914;50.842;0.166;2023-03-01T16:04:46;6.70;1.00
15630;DHT22;7914;50.842;0.166;2023-03-01T16:07:12;6.80;1.00
15630;DHT22;7914;50.842;0.166;2023-03-01T16:09:38;6.90;1.00
15630;DHT22;7914;50.842;0.166;2023-03-01T16:12:03;8.40;99.90
15630;DHT22;7914;50.842;0.166;2023-03-01T16:14:29;6.90;99.90
15630;DHT22;7914;50.842;0.166;2023-03-01T16:16:55;8.20;99.90
15630;DHT22;7914;50.842;0.166;2023-03-01T16:19:20;8.10;99.90
15630;DHT22;7914;50.842;0.166;2023-03-01T16:21:46;6.70;1.00
15630;DHT22;7914;50.842;0.166;2023-03-01T16:24:14;6.70;1.00
15630;DHT22;7914;50.842;0.166;2023-03-01T16:26:40;6.70;1.00
15630;DHT22;7914;50.842;0.166;2023-03-01T16:29:06;7.50;1.00
15630;DHT22;7914;50.842;0.166;2023-03-01T16:31:32;8.20;1.00
15630;DHT22;7914;50.842;0.166;2023-03-01T16:33:58;6.60;66.70
15630;DHT22;7914;50.842;0.166;2023-03-01T16:36:26;6.60;23.90
15630;DHT22;7914;50.842;0.166;2023-03-01T16:38:54;6.60;99.90
15630;DHT22;7914;50.842;0.166;2023-03-01T16:41:22;7.20;56.00
15630;DHT22;7914;50.842;0.166;2023-03-01T16:43:48;7.90;1.00
15630;DHT22;7914;50.842;0.166;2023-03-01T16:46:20;6.60;1.00
15630;DHT22;7914;50.842;0.166;2023-03-01T16:48:46;6.70;1.00
15630;DHT22;7914;50.842;0.166;2023-03-01T16:51:12;7.40;1.00
15630;DHT22;7914;50.842;0.166;2023-03-01T16:53:38;6.60;1.00
15630;DHT22;7914;50.842;0.166;2023-03-01T16:56:06;7.50;1.00
15630;DHT22;7914;50.842;0.166;2023-03-01T16:58:34;6.60;1.00
15630;DHT22;7914;50.842;0.166;2023-03-01T17:01:14;6.60;1.00
15630;DHT22;7914;50.842;0.166;2023-03-01T17:03:41;6.60;1.00
15630;DHT22;7914;50.842;0.166;2023-03-01T17:06:09;6.60;1.00
15630;DHT22;7914;50.842;0.166;2023-03-01T17:08:36;6.50;1.00
15630;DHT22;7914;50.842;0.166;2023-03-01T17:11:13;6.50;16.00
15630;DHT22;7914;50.842;0.166;2023-03-01T17:13:39;6.50;99.90
15630;DHT22;7914;50.842;0.166;2023-03-01T17:16:08;6.50;99.90
15630;DHT22;7914;50.842;0.166;2023-03-01T17:18:34;6.50;99.90
15630;DHT22;7914;50.842;0.166;2023-03-01T17:23:27;6.40;1.00
15630;DHT22;7914;50.842;0.166;2023-03-01T17:25:53;7.20;1.00
15630;DHT22;7914;50.842;0.166;2023-03-01T17:28:22;6.40;1.00
15630;DHT22;7914;50.842;0.166;2023-03-01T17:30:48;8.30;1.00
15630;DHT22;7914;50.842;0.166;2023-03-01T17:33:14;6.30;55.10
15630;DHT22;7914;50.842;0.166;2023-03-01T17:35:40;6.30;99.90
15630;DHT22;7914;50.842;0.166;2023-03-01T17:38:06;8.00;99.90
15630;DHT22;7914;50.842;0.166;2023-03-01T17:40:33;7.40;99.90
15630;DHT22;7914;50.842;0.166;2023-03-01T17:43:00;7.00;99.90
15630;DHT22;7914;50.842;0.166;2023-03-01T17:45:27;6.30;99.90
15630;DHT22;7914;50.842;0.166;2023-03-01T17:47:52;6.20;1.00
15630;DHT22;7914;50.842;0.166;2023-03-01T17:50:18;8.40;1.00
15630;DHT22;7914;50.842;0.166;2023-03-01T17:52:44;7.40;1.00
15630;DHT22;7914;50.842;0.166;2023-03-01T17:55:10;6.10;1.00
15630;DHT22;7914;50.842;0.166;2023-03-01T17:57:39;7.70;1.00
15630;DHT22;7914;50.842;0.166;2023-03-01T18:00:10;6.00;31.20
15630;DHT22;7914;50.842;0.166;2023-03-01T18:02:37;6.70;33.90
15630;DHT22;7914;50.842;0.166;2023-03-01T18:05:02;8.10;99.90
15630;DHT22;7914;50.842;0.166;2023-03-01T18:07:29;5.80;1.00
15630;DHT22;7914;50.842;0.166;2023-03-01T18:09:55;5.70;1.00
15630;DHT22;7914;50.842;0.166;2023-03-01T18:12:21;6.00;1.00
15630;DHT22;7914;50.842;0.166;2023-03-01T18:14:48;6.50;68.20
15630;DHT22;7914;50.842;0.166;2023-03-01T18:17:19;5.90;1.00